sensor_id;sensor_type;location;lat;lon;timestamp;P1;durP1;ratioP1;P2;durP2;ratioP2
80133;SDS011;69443;51.442;10.564;2023-07-13T00:00:27;1.50;;;0.85;;
80133;SDS011;69443;51.442;10.564;2023-07-13T00:02:53;2.00;;;1.23;;
80133;SDS011;69443;51.442;10.564;2023-07-13T00:05:19;1.45;;;0.88;;
80133;SDS011;69443;51.442;10.564;2023-07-13T00:07:45;1.13;;;0.75;;
80133;SDS011;69443;51.442;10.564;2023-07-13T00:10:11;2.25;;;0.70;;
80133;SDS011;69443;51.442;10.564;2023-07-13T00:12:38;0.82;;;0.70;;
80133;SDS011;69443;51.442;10.564;2023-07-13T00:15:04;1.92;;;0.98;;
80133;SDS011;69443;51.442;10.564;2023-07-13T00:17:38;0.93;;;0.68;;
80133;SDS011;69443;51.442;10.564;2023-07-13T00:20:04;2.10;;;1.40;;
80133;SDS011;69443;51.442;10.564;2023-07-13T00:22:30;1.08;;;0.60;;
80133;SDS011;69443;51.442;10.564;2023-07-13T00:24:56;1.50;;;0.82;;
80133;SDS011;69443;51.442;10.564;2023-07-13T00:27:22;1.25;;;0.95;;
80133;SDS011;69443;51.442;10.564;2023-07-13T00:29:48;2.60;;;1.00;;
80133;SDS011;69443;51.442;10.564;2023-07-13T00:32:13;0.82;;;0.70;;
80133;SDS011;69443;51.442;10.564;2023-07-13T00:34:39;1.58;;;0.90;;
80133;SDS011;69443;51.442;10.564;2023-07-13T00:37:05;1.17;;;0.70;;
80133;SDS011;69443;51.442;10.564;2023-07-13T00:39:32;2.00;;;1.00;;
80133;SDS011;69443;51.442;10.564;2023-07-13T00:41:58;1.13;;;1.02;;
80133;SDS011;69443;51.442;10.564;2023-07-13T00:44:25;1.00;;;0.80;;
80133;SDS011;69443;51.442;10.564;2023-07-13T00:46:50;1.10;;;0.80;;
80133;SDS011;69443;51.442;10.564;2023-07-13T00:49:18;1.42;;;0.68;;
80133;SDS011;69443;51.442;10.564;2023-07-13T00:51:48;0.70;;;0.70;;
80133;SDS011;69443;51.442;10.564;2023-07-13T00:54:21;3.38;;;1.58;;
80133;SDS011;69443;51.442;10.564;2023-07-13T00:56:53;2.55;;;1.45;;
80133;SDS011;69443;51.442;10.564;2023-07-13T00:59:22;2.03;;;0.70;;
80133;SDS011;69443;51.442;10.564;2023-07-13T01:01:48;3.47;;;1.30;;
80133;SDS011;69443;51.442;10.564;2023-07-13T01:04:13;1.75;;;0.90;;
80133;SDS011;69443;51.442;10.564;2023-07-13T01:06:39;2.08;;;1.30;;
80133;SDS011;69443;51.442;10.564;2023-07-13T01:09:06;1.73;;;1.30;;
80133;SDS011;69443;51.442;10.564;2023-07-13T01:11:33;1.88;;;0.90;;
80133;SDS011;69443;51.442;10.564;2023-07-13T01:14:00;1.00;;;0.93;;
80133;SDS011;69443;51.442;10.564;2023-07-13T01:16:28;2.15;;;1.20;;
80133;SDS011;69443;51.442;10.564;2023-07-13T01:18:56;1.10;;;1.00;;
80133;SDS011;69443;51.442;10.564;2023-07-13T01:21:27;2.65;;;1.42;;
80133;SDS011;69443;51.442;10.564;2023-07-13T01:23:53;1.30;;;1.20;;
80133;SDS011;69443;51.442;10.564;2023-07-13T01:26:19;2.22;;;1.23;;
80133;SDS011;69443;51.442;10.564;2023-07-13T01:28:45;2.28;;;1.00;;
80133;SDS011;69443;51.442;10.564;2023-07-13T01:31:10;1.90;;;1.08;;
80133;SDS011;69443;51.442;10.564;2023-07-13T01:33:37;1.55;;;1.00;;
80133;SDS011;69443;51.442;10.564;2023-07-13T01:36:06;1.00;;;0.90;;
80133;SDS011;69443;51.442;10.564;2023-07-13T01:38:33;1.45;;;1.20;;
80133;SDS011;69443;51.442;10.564;2023-07-13T01:40:59;4.22;;;1.10;;
80133;SDS011;69443;51.442;10.564;2023-07-13T01:43:25;1.98;;;1.50;;
80133;SDS011;69443;51.442;10.564;2023-07-13T01:45:51;2.10;;;1.30;;
80133;SDS011;69443;51.442;10.564;2023-07-13T01:48:16;1.05;;;1.00;;
80133;SDS011;69443;51.442;10.564;2023-07-13T01:50:41;1.02;;;0.93;;
80133;SDS011;69443;51.442;10.564;2023-07-13T01:53:07;1.13;;;1.00;;
80133;SDS011;69443;51.442;10.564;2023-07-13T01:55:33;3.75;;;1.33;;
80133;SDS011;69443;51.442;10.564;2023-07-13T01:57:59;2.78;;;1.42;;
80133;SDS011;69443;51.442;10.564;2023-07-13T02:00:24;1.88;;;1.13;;
80133;SDS011;69443;51.442;10.564;2023-07-13T02:02:50;3.30;;;1.50;;
80133;SDS011;69443;51.442;10.564;2023-07-13T02:05:16;3.08;;;1.48;;
80133;SDS011;69443;51.442;10.564;2023-07-13T02:07:41;1.98;;;1.20;;
80133;SDS011;69443;51.442;10.564;2023-07-13T02:10:07;1.60;;;1.20;;
80133;SDS011;69443;51.442;10.564;2023-07-13T02:12:34;4.03;;;1.50;;
80133;SDS011;69443;51.442;10.564;2023-07-13T02:14:59;2.70;;;1.30;;
80133;SDS011;69443;51.442;10.564;2023-07-13T02:17:26;1.90;;;1.10;;
80133;SDS011;69443;51.442;10.564;2023-07-13T02:19:51;4.13;;;1.50;;
80133;SDS011;69443;51.442;10.564;2023-07-13T02:22:17;1.90;;;1.10;;
80133;SDS011;69443;51.442;10.564;2023-07-13T02:24:43;4.55;;;1.30;;
80133;SDS011;69443;51.442;10.564;2023-07-13T02:27:08;3.20;;;1.45;;
80133;SDS011;69443;51.442;10.564;2023-07-13T02:29:33;1.80;;;1.35;;
80133;SDS011;69443;51.442;10.564;2023-07-13T02:31:59;1.77;;;1.17;;
80133;SDS011;69443;51.442;10.564;2023-07-13T02:34:24;2.88;;;1.50;;
80133;SDS011;69443;51.442;10.564;2023-07-13T02:36:50;3.22;;;1.30;;
80133;SDS011;69443;51.442;10.564;2023-07-13T02:39:15;3.72;;;1.55;;
80133;SDS011;69443;51.442;10.564;2023-07-13T02:41:40;1.30;;;1.20;;
80133;SDS011;69443;51.442;10.564;2023-07-13T02:44:06;3.80;;;1.23;;
80133;SDS011;69443;51.442;10.564;2023-07-13T02:46:34;4.65;;;1.52;;
80133;SDS011;69443;51.442;10.564;2023-07-13T02:49:00;1.90;;;1.40;;
80133;SDS011;69443;51.442;10.564;2023-07-13T02:51:26;1.60;;;1.27;;
80133;SDS011;69443;51.442;10.564;2023-07-13T02:53:52;1.40;;;1.02;;
80133;SDS011;69443;51.442;10.564;2023-07-13T02:56:18;2.42;;;1.25;;
80133;SDS011;69443;51.442;10.564;2023-07-13T02:58:47;1.60;;;1.50;;
80133;SDS011;69443;51.442;10.564;2023-07-13T03:01:12;2.50;;;1.20;;
80133;SDS011;69443;51.442;10.564;2023-07-13T03:03:43;1.98;;;1.50;;
80133;SDS011;69443;51.442;10.564;2023-07-13T03:06:08;1.17;;;1.00;;
80133;SDS011;69443;51.442;10.564;2023-07-13T03:08:33;1.10;;;1.10;;
80133;SDS011;69443;51.442;10.564;2023-07-13T03:11:00;2.50;;;1.42;;
80133;SDS011;69443;51.442;10.564;2023-07-13T03:13:25;1.88;;;1.17;;
80133;SDS011;69443;51.442;10.564;2023-07-13T03:15:51;2.13;;;1.10;;
80133;SDS011;69443;51.442;10.564;2023-07-13T03:18:16;4.78;;;1.60;;
80133;SDS011;69443;51.442;10.564;2023-07-13T03:20:42;2.38;;;1.25;;
80133;SDS011;69443;51.442;10.564;2023-07-13T03:23:07;2.05;;;1.35;;
80133;SDS011;69443;51.442;10.564;2023-07-13T03:25:32;2.10;;;0.95;;
80133;SDS011;69443;51.442;10.564;2023-07-13T03:27:58;1.58;;;1.00;;
80133;SDS011;69443;51.442;10.564;2023-07-13T03:30:23;1.23;;;1.10;;
80133;SDS011;69443;51.442;10.564;2023-07-13T03:32:48;2.25;;;1.30;;
80133;SDS011;69443;51.442;10.564;2023-07-13T03:35:14;1.80;;;1.20;;
80133;SDS011;69443;51.442;10.564;2023-07-13T03:37:39;2.22;;;1.30;;
80133;SDS011;69443;51.442;10.564;2023-07-13T03:40:07;0.82;;;0.80;;
80133;SDS011;69443;51.442;10.564;2023-07-13T03:42:34;0.80;;;0.80;;
80133;SDS011;69443;51.442;10.564;2023-07-13T03:45:00;0.80;;;0.80;;
80133;SDS011;69443;51.442;10.564;2023-07-13T03:47:25;1.20;;;0.88;;
80133;SDS011;69443;51.442;10.564;2023-07-13T03:49:51;1.35;;;0.90;;
80133;SDS011;69443;51.442;10.564;2023-07-13T03:52:16;1.00;;;0.90;;
80133;SDS011;69443;51.442;10.564;2023-07-13T03:54:41;0.88;;;0.80;;
80133;SDS011;69443;51.442;10.564;2023-07-13T03:57:07;0.93;;;0.82;;
80133;SDS011;69443;51.442;10.564;2023-07-13T03:59:33;1.38;;;0.70;;
80133;SDS011;69443;51.442;10.564;2023-07-13T04:01:59;1.40;;;0.90;;
80133;SDS011;69443;51.442;10.564;2023-07-13T04:04:24;2.53;;;1.25;;
80133;SDS011;69443;51.442;10.564;2023-07-13T04:06:50;0.90;;;0.90;;
80133;SDS011;69443;51.442;10.564;2023-07-13T04:09:17;1.73;;;0.98;;
80133;SDS011;69443;51.442;10.564;2023-07-13T04:11:43;1.42;;;0.98;;
80133;SDS011;69443;51.442;10.564;2023-07-13T04:14:09;2.13;;;1.52;;
80133;SDS011;69443;51.442;10.564;2023-07-13T04:16:34;1.10;;;1.08;;
80133;SDS011;69443;51.442;10.564;2023-07-13T04:19:00;1.38;;;1.17;;
80133;SDS011;69443;51.442;10.564;2023-07-13T04:21:28;2.63;;;0.90;;
80133;SDS011;69443;51.442;10.564;2023-07-13T04:23:55;1.35;;;1.25;;
80133;SDS011;69443;51.442;10.564;2023-07-13T04:26:20;1.33;;;1.10;;
80133;SDS011;69443;51.442;10.564;2023-07-13T04:28:47;3.58;;;1.90;;
80133;SDS011;69443;51.442;10.564;2023-07-13T04:31:14;2.38;;;1.27;;
80133;SDS011;69443;51.442;10.564;2023-07-13T04:33:39;2.50;;;1.63;;
80133;SDS011;69443;51.442;10.564;2023-07-13T04:36:05;2.05;;;1.58;;
80133;SDS011;69443;51.442;10.564;2023-07-13T04:38:31;1.45;;;1.30;;
80133;SDS011;69443;51.442;10.564;2023-07-13T04:40:59;1.75;;;1.00;;
80133;SDS011;69443;51.442;10.564;2023-07-13T04:43:27;2.25;;;1.10;;
80133;SDS011;69443;51.442;10.564;2023-07-13T04:45:53;2.10;;;1.38;;
80133;SDS011;69443;51.442;10.564;2023-07-13T04:48:19;1.30;;;1.20;;
80133;SDS011;69443;51.442;10.564;2023-07-13T04:50:45;1.30;;;1.20;;
80133;SDS011;69443;51.442;10.564;2023-07-13T04:53:11;3.22;;;1.20;;
80133;SDS011;69443;51.442;10.564;2023-07-13T04:55:37;3.38;;;1.35;;
80133;SDS011;69443;51.442;10.564;2023-07-13T04:58:03;1.95;;;1.30;;
80133;SDS011;69443;51.442;10.564;2023-07-13T05:00:29;1.88;;;1.20;;
80133;SDS011;69443;51.442;10.564;2023-07-13T05:02:55;2.90;;;1.30;;
80133;SDS011;69443;51.442;10.564;2023-07-13T05:05:22;1.48;;;1.42;;
80133;SDS011;69443;51.442;10.564;2023-07-13T05:07:48;2.22;;;1.13;;
80133;SDS011;69443;51.442;10.564;2023-07-13T05:10:13;1.17;;;1.08;;
80133;SDS011;69443;51.442;10.564;2023-07-13T05:12:39;4.43;;;1.90;;
80133;SDS011;69443;51.442;10.564;2023-07-13T05:15:04;2.58;;;1.25;;
80133;SDS011;69443;51.442;10.564;2023-07-13T05:17:30;2.88;;;1.30;;
80133;SDS011;69443;51.442;10.564;2023-07-13T05:19:55;2.65;;;1.40;;
80133;SDS011;69443;51.442;10.564;2023-07-13T05:22:21;1.33;;;1.13;;
80133;SDS011;69443;51.442;10.564;2023-07-13T05:24:46;2.75;;;1.30;;
80133;SDS011;69443;51.442;10.564;2023-07-13T05:27:12;2.63;;;1.60;;
80133;SDS011;69443;51.442;10.564;2023-07-13T05:29:37;2.60;;;1.88;;
80133;SDS011;69443;51.442;10.564;2023-07-13T05:32:03;3.35;;;1.73;;
80133;SDS011;69443;51.442;10.564;2023-07-13T05:34:29;1.20;;;1.10;;
80133;SDS011;69443;51.442;10.564;2023-07-13T05:36:54;1.95;;;1.20;;
80133;SDS011;69443;51.442;10.564;2023-07-13T05:39:20;2.25;;;1.13;;
80133;SDS011;69443;51.442;10.564;2023-07-13T05:41:45;1.67;;;1.10;;
80133;SDS011;69443;51.442;10.564;2023-07-13T05:44:11;2.35;;;1.35;;
80133;SDS011;69443;51.442;10.564;2023-07-13T05:46:36;1.50;;;1.15;;
80133;SDS011;69443;51.442;10.564;2023-07-13T05:49:01;1.58;;;1.20;;
80133;SDS011;69443;51.442;10.564;2023-07-13T05:51:28;1.05;;;1.00;;
80133;SDS011;69443;51.442;10.564;2023-07-13T05:53:53;3.13;;;1.35;;
80133;SDS011;69443;51.442;10.564;2023-07-13T05:56:19;2.97;;;1.42;;
80133;SDS011;69443;51.442;10.564;2023-07-13T05:58:44;2.58;;;1.48;;
80133;SDS011;69443;51.442;10.564;2023-07-13T06:01:10;2.53;;;1.40;;
80133;SDS011;69443;51.442;10.564;2023-07-13T06:03:37;2.05;;;1.30;;
80133;SDS011;69443;51.442;10.564;2023-07-13T06:06:03;2.20;;;1.42;;
80133;SDS011;69443;51.442;10.564;2023-07-13T06:08:30;4.13;;;1.80;;
80133;SDS011;69443;51.442;10.564;2023-07-13T06:11:00;1.45;;;1.20;;
80133;SDS011;69443;51.442;10.564;2023-07-13T06:13:27;2.30;;;1.48;;
80133;SDS011;69443;51.442;10.564;2023-07-13T06:15:52;3.00;;;1.35;;
80133;SDS011;69443;51.442;10.564;2023-07-13T06:18:17;3.75;;;1.35;;
80133;SDS011;69443;51.442;10.564;2023-07-13T06:20:43;1.17;;;0.90;;
80133;SDS011;69443;51.442;10.564;2023-07-13T06:23:08;0.85;;;0.85;;
80133;SDS011;69443;51.442;10.564;2023-07-13T06:25:34;3.15;;;1.52;;
80133;SDS011;69443;51.442;10.564;2023-07-13T06:27:59;1.45;;;0.73;;
80133;SDS011;69443;51.442;10.564;2023-07-13T06:30:25;2.20;;;1.10;;
80133;SDS011;69443;51.442;10.564;2023-07-13T06:32:51;3.22;;;1.15;;
80133;SDS011;69443;51.442;10.564;2023-07-13T06:35:16;2.80;;;1.20;;
80133;SDS011;69443;51.442;10.564;2023-07-13T06:37:41;1.55;;;0.90;;
80133;SDS011;69443;51.442;10.564;2023-07-13T06:40:07;3.80;;;1.20;;
80133;SDS011;69443;51.442;10.564;2023-07-13T06:42:33;1.63;;;0.80;;
80133;SDS011;69443;51.442;10.564;2023-07-13T06:44:58;4.60;;;1.30;;
80133;SDS011;69443;51.442;10.564;2023-07-13T06:47:23;5.25;;;1.25;;
80133;SDS011;69443;51.442;10.564;2023-07-13T06:49:49;3.00;;;1.30;;
80133;SDS011;69443;51.442;10.564;2023-07-13T06:52:14;2.17;;;0.90;;
80133;SDS011;69443;51.442;10.564;2023-07-13T06:54:40;1.95;;;1.02;;
80133;SDS011;69443;51.442;10.564;2023-07-13T06:57:05;2.22;;;1.30;;
80133;SDS011;69443;51.442;10.564;2023-07-13T06:59:31;1.23;;;0.80;;
80133;SDS011;69443;51.442;10.564;2023-07-13T07:01:57;2.88;;;0.98;;
80133;SDS011;69443;51.442;10.564;2023-07-13T07:04:22;1.77;;;0.85;;
80133;SDS011;69443;51.442;10.564;2023-07-13T07:06:47;4.63;;;1.20;;
80133;SDS011;69443;51.442;10.564;2023-07-13T07:09:13;3.42;;;1.23;;
80133;SDS011;69443;51.442;10.564;2023-07-13T07:11:38;2.60;;;1.00;;
80133;SDS011;69443;51.442;10.564;2023-07-13T07:14:04;1.90;;;0.98;;
80133;SDS011;69443;51.442;10.564;2023-07-13T07:16:29;3.65;;;1.27;;
80133;SDS011;69443;51.442;10.564;2023-07-13T07:18:55;1.45;;;0.80;;
80133;SDS011;69443;51.442;10.564;2023-07-13T07:21:20;2.58;;;1.30;;
80133;SDS011;69443;51.442;10.564;2023-07-13T07:23:48;0.95;;;0.75;;
80133;SDS011;69443;51.442;10.564;2023-07-13T07:26:13;1.70;;;0.85;;
80133;SDS011;69443;51.442;10.564;2023-07-13T07:28:39;3.97;;;1.10;;
80133;SDS011;69443;51.442;10.564;2023-07-13T07:31:05;4.70;;;1.40;;
80133;SDS011;69443;51.442;10.564;2023-07-13T07:33:30;2.25;;;1.13;;
80133;SDS011;69443;51.442;10.564;2023-07-13T07:35:55;1.25;;;1.00;;
80133;SDS011;69443;51.442;10.564;2023-07-13T07:38:21;1.85;;;1.00;;
80133;SDS011;69443;51.442;10.564;2023-07-13T07:40:46;2.53;;;1.08;;
80133;SDS011;69443;51.442;10.564;2023-07-13T07:43:12;1.98;;;1.20;;
80133;SDS011;69443;51.442;10.564;2023-07-13T07:45:38;1.92;;;0.80;;
80133;SDS011;69443;51.442;10.564;2023-07-13T07:48:04;1.52;;;0.82;;
80133;SDS011;69443;51.442;10.564;2023-07-13T07:50:30;1.10;;;0.80;;
80133;SDS011;69443;51.442;10.564;2023-07-13T07:52:57;1.65;;;0.85;;
80133;SDS011;69443;51.442;10.564;2023-07-13T07:55:22;1.98;;;1.10;;
80133;SDS011;69443;51.442;10.564;2023-07-13T07:57:50;1.48;;;0.90;;
80133;SDS011;69443;51.442;10.564;2023-07-13T08:00:15;3.15;;;1.02;;
80133;SDS011;69443;51.442;10.564;2023-07-13T08:02:42;2.70;;;0.77;;
80133;SDS011;69443;51.442;10.564;2023-07-13T08:05:08;1.85;;;0.85;;
80133;SDS011;69443;51.442;10.564;2023-07-13T08:07:34;2.35;;;1.05;;
80133;SDS011;69443;51.442;10.564;2023-07-13T08:10:02;1.00;;;0.80;;
80133;SDS011;69443;51.442;10.564;2023-07-13T08:12:27;3.65;;;0.88;;
80133;SDS011;69443;51.442;10.564;2023-07-13T08:14:53;1.35;;;0.80;;
80133;SDS011;69443;51.442;10.564;2023-07-13T08:17:19;0.63;;;0.60;;
80133;SDS011;69443;51.442;10.564;2023-07-13T08:19:45;1.35;;;0.90;;
80133;SDS011;69443;51.442;10.564;2023-07-13T08:22:10;2.70;;;0.93;;
80133;SDS011;69443;51.442;10.564;2023-07-13T08:24:36;1.60;;;0.80;;
80133;SDS011;69443;51.442;10.564;2023-07-13T08:27:01;2.55;;;0.70;;
80133;SDS011;69443;51.442;10.564;2023-07-13T08:29:26;1.83;;;0.75;;
80133;SDS011;69443;51.442;10.564;2023-07-13T08:31:52;2.38;;;0.75;;
80133;SDS011;69443;51.442;10.564;2023-07-13T08:34:17;2.20;;;0.70;;
80133;SDS011;69443;51.442;10.564;2023-07-13T08:36:42;1.83;;;0.70;;
80133;SDS011;69443;51.442;10.564;2023-07-13T08:39:08;0.77;;;0.75;;
80133;SDS011;69443;51.442;10.564;2023-07-13T08:41:33;1.27;;;0.68;;
80133;SDS011;69443;51.442;10.564;2023-07-13T08:44:00;1.45;;;0.60;;
80133;SDS011;69443;51.442;10.564;2023-07-13T08:46:35;1.83;;;0.70;;
80133;SDS011;69443;51.442;10.564;2023-07-13T08:49:16;1.35;;;0.70;;
80133;SDS011;69443;51.442;10.564;2023-07-13T08:51:51;2.45;;;0.75;;
80133;SDS011;69443;51.442;10.564;2023-07-13T08:57:24;0.93;;;0.50;;
80133;SDS011;69443;51.442;10.564;2023-07-13T08:59:56;1.27;;;0.60;;
80133;SDS011;69443;51.442;10.564;2023-07-13T09:02:26;1.20;;;0.70;;
80133;SDS011;69443;51.442;10.564;2023-07-13T09:04:59;1.70;;;0.77;;
80133;SDS011;69443;51.442;10.564;2023-07-13T09:07:56;0.63;;;0.60;;
80133;SDS011;69443;51.442;10.564;2023-07-13T09:13:35;1.15;;;0.65;;
80133;SDS011;69443;51.442;10.564;2023-07-13T09:16:08;0.88;;;0.65;;
80133;SDS011;69443;51.442;10.564;2023-07-13T09:18:39;2.42;;;0.70;;
80133;SDS011;69443;51.442;10.564;2023-07-13T09:21:13;0.57;;;0.50;;
80133;SDS011;69443;51.442;10.564;2023-07-13T09:23:42;3.42;;;0.70;;
80133;SDS011;69443;51.442;10.564;2023-07-13T09:26:12;1.42;;;0.90;;
80133;SDS011;69443;51.442;10.564;2023-07-13T09:28:43;0.90;;;0.65;;
80133;SDS011;69443;51.442;10.564;2023-07-13T09:33:47;2.30;;;0.90;;
80133;SDS011;69443;51.442;10.564;2023-07-13T09:36:17;0.63;;;0.40;;
80133;SDS011;69443;51.442;10.564;2023-07-13T09:38:45;0.85;;;0.45;;
80133;SDS011;69443;51.442;10.564;2023-07-13T09:44:16;3.00;;;0.98;;
80133;SDS011;69443;51.442;10.564;2023-07-13T09:46:52;2.03;;;0.77;;
80133;SDS011;69443;51.442;10.564;2023-07-13T09:49:22;1.65;;;0.95;;
80133;SDS011;69443;51.442;10.564;2023-07-13T09:51:57;1.23;;;0.60;;
80133;SDS011;69443;51.442;10.564;2023-07-13T09:54:28;1.08;;;0.45;;
80133;SDS011;69443;51.442;10.564;2023-07-13T09:56:58;1.08;;;0.50;;
80133;SDS011;69443;51.442;10.564;2023-07-13T09:59:28;1.92;;;0.60;;
80133;SDS011;69443;51.442;10.564;2023-07-13T10:01:55;1.20;;;0.55;;
80133;SDS011;69443;51.442;10.564;2023-07-13T10:04:26;2.65;;;0.80;;
80133;SDS011;69443;51.442;10.564;2023-07-13T10:07:06;1.52;;;0.60;;
80133;SDS011;69443;51.442;10.564;2023-07-13T10:09:33;1.70;;;0.50;;
80133;SDS011;69443;51.442;10.564;2023-07-13T10:11:59;1.17;;;0.50;;
80133;SDS011;69443;51.442;10.564;2023-07-13T10:14:24;1.05;;;0.75;;
80133;SDS011;69443;51.442;10.564;2023-07-13T10:17:00;2.22;;;0.60;;
80133;SDS011;69443;51.442;10.564;2023-07-13T10:19:29;1.33;;;0.60;;
80133;SDS011;69443;51.442;10.564;2023-07-13T10:24:50;3.28;;;0.60;;
80133;SDS011;69443;51.442;10.564;2023-07-13T10:32:28;2.65;;;0.90;;
80133;SDS011;69443;51.442;10.564;2023-07-13T10:34:54;0.70;;;0.43;;
80133;SDS011;69443;51.442;10.564;2023-07-13T10:37:26;1.90;;;1.00;;
80133;SDS011;69443;51.442;10.564;2023-07-13T10:39:56;0.63;;;0.40;;
80133;SDS011;69443;51.442;10.564;2023-07-13T10:42:27;0.98;;;0.70;;
80133;SDS011;69443;51.442;10.564;2023-07-13T10:44:58;1.67;;;0.88;;
80133;SDS011;69443;51.442;10.564;2023-07-13T10:47:24;0.98;;;0.55;;
80133;SDS011;69443;51.442;10.564;2023-07-13T10:49:54;1.35;;;0.75;;
80133;SDS011;69443;51.442;10.564;2023-07-13T10:52:42;1.05;;;0.50;;
80133;SDS011;69443;51.442;10.564;2023-07-13T10:55:30;1.52;;;0.70;;
80133;SDS011;69443;51.442;10.564;2023-07-13T10:57:59;5.00;;;0.90;;
80133;SDS011;69443;51.442;10.564;2023-07-13T11:00:26;3.90;;;0.80;;
80133;SDS011;69443;51.442;10.564;2023-07-13T11:02:58;0.93;;;0.60;;
80133;SDS011;69443;51.442;10.564;2023-07-13T11:05:29;2.17;;;0.80;;
80133;SDS011;69443;51.442;10.564;2023-07-13T11:10:52;2.10;;;0.80;;
80133;SDS011;69443;51.442;10.564;2023-07-13T11:19:37;2.05;;;0.68;;
80133;SDS011;69443;51.442;10.564;2023-07-13T11:27:42;2.67;;;0.90;;
80133;SDS011;69443;51.442;10.564;2023-07-13T11:35:36;1.70;;;0.55;;
80133;SDS011;69443;51.442;10.564;2023-07-13T11:38:08;1.63;;;0.80;;
80133;SDS011;69443;51.442;10.564;2023-07-13T11:40:38;1.05;;;0.80;;
80133;SDS011;69443;51.442;10.564;2023-07-13T11:43:04;1.33;;;0.80;;
80133;SDS011;69443;51.442;10.564;2023-07-13T11:45:32;0.80;;;0.50;;
80133;SDS011;69443;51.442;10.564;2023-07-13T11:47:58;1.38;;;0.60;;
80133;SDS011;69443;51.442;10.564;2023-07-13T11:50:25;2.47;;;0.68;;
80133;SDS011;69443;51.442;10.564;2023-07-13T11:52:51;1.35;;;0.47;;
80133;SDS011;69443;51.442;10.564;2023-07-13T11:55:20;1.08;;;0.57;;
80133;SDS011;69443;51.442;10.564;2023-07-13T11:57:50;1.58;;;0.50;;
80133;SDS011;69443;51.442;10.564;2023-07-13T12:00:21;1.80;;;0.60;;
80133;SDS011;69443;51.442;10.564;2023-07-13T12:02:49;1.73;;;0.88;;
80133;SDS011;69443;51.442;10.564;2023-07-13T12:05:17;2.45;;;0.80;;
80133;SDS011;69443;51.442;10.564;2023-07-13T12:07:45;1.92;;;0.70;;
80133;SDS011;69443;51.442;10.564;2023-07-13T12:12:51;2.58;;;0.80;;
80133;SDS011;69443;51.442;10.564;2023-07-13T12:15:36;1.42;;;0.70;;
80133;SDS011;69443;51.442;10.564;2023-07-13T12:18:21;1.13;;;0.70;;
80133;SDS011;69443;51.442;10.564;2023-07-13T12:20:49;1.95;;;0.80;;
80133;SDS011;69443;51.442;10.564;2023-07-13T12:23:25;1.65;;;0.68;;
80133;SDS011;69443;51.442;10.564;2023-07-13T12:25:58;1.08;;;0.60;;
80133;SDS011;69443;51.442;10.564;2023-07-13T12:28:34;0.73;;;0.43;;
80133;SDS011;69443;51.442;10.564;2023-07-13T12:31:03;1.05;;;0.50;;
80133;SDS011;69443;51.442;10.564;2023-07-13T12:33:32;1.67;;;0.70;;
80133;SDS011;69443;51.442;10.564;2023-07-13T12:36:02;0.93;;;0.60;;
80133;SDS011;69443;51.442;10.564;2023-07-13T12:38:29;1.25;;;0.50;;
80133;SDS011;69443;51.442;10.564;2023-07-13T12:40:56;1.75;;;0.52;;
80133;SDS011;69443;51.442;10.564;2023-07-13T12:43:22;0.93;;;0.60;;
80133;SDS011;69443;51.442;10.564;2023-07-13T12:48:23;1.42;;;0.70;;
80133;SDS011;69443;51.442;10.564;2023-07-13T12:50:50;2.22;;;0.70;;
80133;SDS011;69443;51.442;10.564;2023-07-13T12:53:19;2.78;;;0.90;;
80133;SDS011;69443;51.442;10.564;2023-07-13T12:55:54;1.13;;;0.70;;
80133;SDS011;69443;51.442;10.564;2023-07-13T13:00:50;1.73;;;0.60;;
80133;SDS011;69443;51.442;10.564;2023-07-13T13:03:21;1.58;;;0.65;;
80133;SDS011;69443;51.442;10.564;2023-07-13T13:05:56;2.05;;;0.68;;
80133;SDS011;69443;51.442;10.564;2023-07-13T13:08:35;0.73;;;0.50;;
80133;SDS011;69443;51.442;10.564;2023-07-13T13:11:01;0.85;;;0.80;;
80133;SDS011;69443;51.442;10.564;2023-07-13T13:13:27;1.05;;;0.75;;
80133;SDS011;69443;51.442;10.564;2023-07-13T13:15:53;1.02;;;0.50;;
80133;SDS011;69443;51.442;10.564;2023-07-13T13:18:20;1.08;;;0.80;;
80133;SDS011;69443;51.442;10.564;2023-07-13T13:20:48;1.95;;;0.55;;
80133;SDS011;69443;51.442;10.564;2023-07-13T13:23:15;2.03;;;0.80;;
80133;SDS011;69443;51.442;10.564;2023-07-13T13:25:43;0.88;;;0.50;;
80133;SDS011;69443;51.442;10.564;2023-07-13T13:28:16;1.45;;;0.85;;
80133;SDS011;69443;51.442;10.564;2023-07-13T13:30:43;3.03;;;0.70;;
80133;SDS011;69443;51.442;10.564;2023-07-13T13:33:11;2.25;;;0.82;;
80133;SDS011;69443;51.442;10.564;2023-07-13T13:35:37;1.38;;;0.60;;
80133;SDS011;69443;51.442;10.564;2023-07-13T13:38:20;1.95;;;0.85;;
80133;SDS011;69443;51.442;10.564;2023-07-13T13:40:50;2.13;;;0.70;;
80133;SDS011;69443;51.442;10.564;2023-07-13T13:43:23;1.15;;;0.60;;
80133;SDS011;69443;51.442;10.564;2023-07-13T13:45:56;1.80;;;0.63;;
80133;SDS011;69443;51.442;10.564;2023-07-13T13:48:31;0.77;;;0.60;;
80133;SDS011;69443;51.442;10.564;2023-07-13T13:50:58;1.25;;;0.70;;
80133;SDS011;69443;51.442;10.564;2023-07-13T13:53:25;1.20;;;0.63;;
80133;SDS011;69443;51.442;10.564;2023-07-13T13:55:50;1.15;;;0.70;;
80133;SDS011;69443;51.442;10.564;2023-07-13T13:58:17;2.10;;;0.80;;
80133;SDS011;69443;51.442;10.564;2023-07-13T14:00:43;0.93;;;0.70;;
80133;SDS011;69443;51.442;10.564;2023-07-13T14:03:14;1.83;;;0.85;;
80133;SDS011;69443;51.442;10.564;2023-07-13T14:08:12;0.55;;;0.50;;
80133;SDS011;69443;51.442;10.564;2023-07-13T14:10:39;2.55;;;0.77;;
80133;SDS011;69443;51.442;10.564;2023-07-13T14:13:07;1.63;;;0.77;;
80133;SDS011;69443;51.442;10.564;2023-07-13T14:15:42;1.42;;;0.70;;
80133;SDS011;69443;51.442;10.564;2023-07-13T14:18:08;1.40;;;0.73;;
80133;SDS011;69443;51.442;10.564;2023-07-13T14:20:34;0.63;;;0.50;;
80133;SDS011;69443;51.442;10.564;2023-07-13T14:22:59;1.38;;;0.82;;
80133;SDS011;69443;51.442;10.564;2023-07-13T14:25:24;0.73;;;0.73;;
80133;SDS011;69443;51.442;10.564;2023-07-13T14:27:51;1.27;;;0.73;;
80133;SDS011;69443;51.442;10.564;2023-07-13T14:30:22;1.50;;;0.70;;
80133;SDS011;69443;51.442;10.564;2023-07-13T14:32:47;0.70;;;0.70;;
80133;SDS011;69443;51.442;10.564;2023-07-13T14:35:14;1.30;;;0.80;;
80133;SDS011;69443;51.442;10.564;2023-07-13T14:37:41;1.55;;;0.65;;
80133;SDS011;69443;51.442;10.564;2023-07-13T14:40:14;2.88;;;0.90;;
80133;SDS011;69443;51.442;10.564;2023-07-13T14:42:47;3.28;;;0.63;;
80133;SDS011;69443;51.442;10.564;2023-07-13T14:45:13;1.02;;;0.50;;
80133;SDS011;69443;51.442;10.564;2023-07-13T14:47:41;0.60;;;0.60;;
80133;SDS011;69443;51.442;10.564;2023-07-13T14:50:18;1.10;;;0.85;;
80133;SDS011;69443;51.442;10.564;2023-07-13T14:52:45;0.50;;;0.50;;
80133;SDS011;69443;51.442;10.564;2023-07-13T14:55:17;1.08;;;0.90;;
80133;SDS011;69443;51.442;10.564;2023-07-13T14:57:43;1.58;;;0.90;;
80133;SDS011;69443;51.442;10.564;2023-07-13T15:00:13;1.33;;;0.70;;
80133;SDS011;69443;51.442;10.564;2023-07-13T15:02:42;1.50;;;0.70;;
80133;SDS011;69443;51.442;10.564;2023-07-13T15:05:19;0.77;;;0.60;;
80133;SDS011;69443;51.442;10.564;2023-07-13T15:07:50;1.30;;;0.80;;
80133;SDS011;69443;51.442;10.564;2023-07-13T15:12:43;3.53;;;1.20;;
80133;SDS011;69443;51.442;10.564;2023-07-13T15:15:08;0.85;;;0.70;;
80133;SDS011;69443;51.442;10.564;2023-07-13T15:17:35;2.63;;;0.80;;
80133;SDS011;69443;51.442;10.564;2023-07-13T15:20:06;1.10;;;0.90;;
80133;SDS011;69443;51.442;10.564;2023-07-13T15:22:37;0.80;;;0.80;;
80133;SDS011;69443;51.442;10.564;2023-07-13T15:25:03;1.38;;;0.90;;
80133;SDS011;69443;51.442;10.564;2023-07-13T15:27:33;1.00;;;0.77;;